createdAt,value
2019-03-10T00:04:53.668Z,99.90
2019-03-10T00:07:17.185Z,99.90
2019-03-10T00:09:21.595Z,99.90
2019-03-10T00:11:26.796Z,99.90
2019-03-10T00:13:33.491Z,99.90
2019-03-10T00:15:37.883Z,99.90
2019-03-10T00:17:42.802Z,99.90
2019-03-10T00:19:47.281Z,99.90
2019-03-10T00:21:52.233Z,99.90
2019-03-10T00:23:56.719Z,99.90
2019-03-10T00:26:01.221Z,99.90
2019-03-10T00:28:08.108Z,99.90
2019-03-10T00:30:13.042Z,99.90
2019-03-10T00:32:17.471Z,99.90
2019-03-10T00:34:23.116Z,99.90
2019-03-10T00:36:30.344Z,99.90
2019-03-10T00:39:13.733Z,99.90
2019-03-10T00:41:51.276Z,99.90
2019-03-10T00:44:33.749Z,99.90
2019-03-10T00:47:19.760Z,99.90
2019-03-10T00:50:02.227Z,99.90
2019-03-10T00:52:27.733Z,99.90
2019-03-10T00:54:35.144Z,99.90
2019-03-10T00:56:40.990Z,99.90
2019-03-10T00:58:45.457Z,99.90
2019-03-10T01:00:50.579Z,99.90
2019-03-10T01:03:14.039Z,99.90
2019-03-10T01:05:30.014Z,99.90
2019-03-10T01:07:54.928Z,99.90
2019-03-10T01:09:59.419Z,99.90
2019-03-10T01:12:05.928Z,99.90
2019-03-10T01:14:18.039Z,99.90
2019-03-10T01:16:25.193Z,99.90
2019-03-10T01:18:30.764Z,99.90
2019-03-10T01:20:56.068Z,99.90
2019-03-10T01:23:12.271Z,99.90
2019-03-10T01:25:21.453Z,99.90
2019-03-10T01:30:15.777Z,99.90
2019-03-10T01:32:58.380Z,99.90
2019-03-10T01:35:15.040Z,99.90
2019-03-10T01:37:20.372Z,99.90
2019-03-10T01:39:44.207Z,99.90
2019-03-10T01:41:49.248Z,99.90
2019-03-10T01:43:54.040Z,99.90
2019-03-10T01:46:01.201Z,99.90
2019-03-10T01:48:05.677Z,99.90
2019-03-10T01:50:12.524Z,99.90
2019-03-10T01:52:18.439Z,99.90
2019-03-10T01:54:22.884Z,99.90
2019-03-10T01:56:30.943Z,99.90
2019-03-10T01:58:55.871Z,99.90
2019-03-10T02:01:00.664Z,99.90
2019-03-10T02:03:05.074Z,99.90
2019-03-10T02:05:11.448Z,99.90
2019-03-10T02:07:16.176Z,99.90
2019-03-10T02:09:20.877Z,99.90
2019-03-10T02:11:45.416Z,99.90
2019-03-10T02:13:49.791Z,99.90
2019-03-10T02:15:55.726Z,99.90
2019-03-10T02:18:02.092Z,99.90
2019-03-10T02:20:07.945Z,99.90
2019-03-10T02:22:31.513Z,99.90
2019-03-10T02:24:38.460Z,99.90
2019-03-10T02:27:03.851Z,99.90
2019-03-10T02:29:11.306Z,99.90
2019-03-10T02:31:16.381Z,99.90
2019-03-10T02:33:21.068Z,99.90
2019-03-10T02:35:25.532Z,99.90
2019-03-10T02:37:32.533Z,99.90
2019-03-10T02:39:36.934Z,99.90
2019-03-10T02:41:41.467Z,99.90
2019-03-10T02:43:45.965Z,99.90
2019-03-10T02:45:50.319Z,99.90
2019-03-10T02:48:14.205Z,99.90
2019-03-10T02:50:18.897Z,99.90
2019-03-10T02:52:23.631Z,99.90
2019-03-10T02:54:50.178Z,99.90
2019-03-10T02:56:54.736Z,99.90
2019-03-10T02:58:59.154Z,99.90
2019-03-10T03:01:23.815Z,99.90
2019-03-10T03:03:28.919Z,99.90
2019-03-10T03:08:03.518Z,99.90
2019-03-10T03:10:26.929Z,99.90
2019-03-10T03:12:31.442Z,99.90
2019-03-10T03:14:35.881Z,99.90
2019-03-10T03:16:40.410Z,99.90
2019-03-10T03:18:44.888Z,99.90
2019-03-10T03:21:08.393Z,99.90
2019-03-10T03:23:15.351Z,99.90
2019-03-10T03:25:19.824Z,99.90
2019-03-10T03:27:27.801Z,99.90
2019-03-10T03:29:32.181Z,99.90
2019-03-10T03:31:36.644Z,99.90
2019-03-10T03:33:41.035Z,99.90
2019-03-10T03:36:06.905Z,99.90
2019-03-10T03:38:23.790Z,99.90
2019-03-10T03:40:28.580Z,99.90
2019-03-10T03:42:52.038Z,99.90
2019-03-10T03:45:01.388Z,99.90
2019-03-10T03:47:07.446Z,99.90
2019-03-10T03:49:12.080Z,99.90
2019-03-10T03:51:16.511Z,99.90
2019-03-10T03:53:21.344Z,99.90
2019-03-10T03:55:28.619Z,99.90
2019-03-10T03:57:32.974Z,99.90
2019-03-10T03:59:56.370Z,99.90
2019-03-10T04:02:19.825Z,99.90
2019-03-10T04:04:24.232Z,99.90
2019-03-10T04:06:28.614Z,99.90
2019-03-10T04:08:54.383Z,99.90
2019-03-10T04:10:59.110Z,99.90
2019-03-10T04:15:32.348Z,99.90
2019-03-10T04:17:56.828Z,99.90
2019-03-10T04:20:02.395Z,99.90
2019-03-10T04:22:09.317Z,99.90
2019-03-10T04:24:14.121Z,99.90
2019-03-10T04:26:19.339Z,99.90
2019-03-10T04:28:24.283Z,99.90
2019-03-10T04:30:47.694Z,99.90
2019-03-10T04:32:52.040Z,99.90
2019-03-10T04:34:57.263Z,99.90
2019-03-10T04:37:01.618Z,99.90
2019-03-10T04:39:08.168Z,99.90
2019-03-10T04:41:12.837Z,99.90
2019-03-10T04:43:17.243Z,99.90
2019-03-10T04:45:21.809Z,99.90
2019-03-10T04:47:27.101Z,99.90
2019-03-10T04:49:43.782Z,99.90
2019-03-10T04:51:37.829Z,99.90
2019-03-10T04:53:54.113Z,99.90
2019-03-10T04:56:16.522Z,99.90
2019-03-10T04:58:41.627Z,99.90
2019-03-10T05:00:49.116Z,99.90
2019-03-10T05:02:53.543Z,99.90
2019-03-10T05:04:57.901Z,99.90
2019-03-10T05:07:04.224Z,99.90
2019-03-10T05:09:12.068Z,99.90
2019-03-10T05:13:41.475Z,99.90
2019-03-10T05:15:47.040Z,99.90
2019-03-10T05:17:51.477Z,99.90
2019-03-10T05:19:56.005Z,99.90
2019-03-10T05:22:01.305Z,99.90
2019-03-10T05:24:14.165Z,99.90
2019-03-10T05:26:19.544Z,99.90
2019-03-10T05:28:24.267Z,99.90
2019-03-10T05:30:28.795Z,99.90
2019-03-10T05:32:33.238Z,99.90
2019-03-10T05:34:38.003Z,99.90
2019-03-10T05:36:43.338Z,99.90
2019-03-10T05:38:48.921Z,99.90
2019-03-10T05:40:56.647Z,99.90
2019-03-10T05:43:01.078Z,99.90
2019-03-10T05:45:06.341Z,99.90
2019-03-10T05:47:10.787Z,99.90
2019-03-10T05:49:15.571Z,99.90
2019-03-10T05:51:39.072Z,99.90
2019-03-10T05:53:46.003Z,99.90
2019-03-10T05:55:50.413Z,99.90
2019-03-10T05:57:56.546Z,99.90
2019-03-10T06:00:00.968Z,99.90
2019-03-10T06:02:21.634Z,99.90
2019-03-10T06:04:15.609Z,99.90
2019-03-10T06:06:20.455Z,99.90
2019-03-10T06:08:27.455Z,99.90
2019-03-10T06:10:32.006Z,99.90
2019-03-10T06:12:38.148Z,99.90
2019-03-10T06:14:42.599Z,99.90
2019-03-10T06:16:49.771Z,99.90
2019-03-10T06:18:57.192Z,99.90
2019-03-10T06:21:03.152Z,99.90
2019-03-10T06:23:10.346Z,99.90
2019-03-10T06:25:35.038Z,99.90
2019-03-10T06:27:39.826Z,99.90
2019-03-10T06:29:49.029Z,99.90
2019-03-10T06:32:12.528Z,99.90
2019-03-10T06:34:17.336Z,99.90
2019-03-10T06:36:40.830Z,99.90
2019-03-10T06:38:46.921Z,99.90
2019-03-10T06:40:52.069Z,99.90
2019-03-10T06:45:11.646Z,99.90
2019-03-10T06:47:17.645Z,99.90
2019-03-10T06:49:42.348Z,99.90
2019-03-10T06:51:48.074Z,99.90
2019-03-10T06:53:54.499Z,99.90
2019-03-10T06:56:02.024Z,99.90
2019-03-10T06:58:06.590Z,99.90
2019-03-10T07:00:13.427Z,99.90
2019-03-10T07:02:17.791Z,99.90
2019-03-10T07:04:24.849Z,99.90
2019-03-10T07:06:48.398Z,99.90
2019-03-10T07:08:52.717Z,99.90
2019-03-10T07:10:58.967Z,99.90
2019-03-10T07:13:25.322Z,99.90
2019-03-10T07:15:31.977Z,99.90
2019-03-10T07:17:46.697Z,99.90
2019-03-10T07:19:52.268Z,99.90
2019-03-10T07:24:21.495Z,99.90
2019-03-10T07:26:26.664Z,99.90
2019-03-10T07:28:36.892Z,99.90
2019-03-10T07:30:46.302Z,99.90
2019-03-10T07:33:33.248Z,99.90
2019-03-10T07:35:56.973Z,99.90
2019-03-10T07:41:06.986Z,99.90
2019-03-10T07:44:00.195Z,99.90
2019-03-10T07:46:27.021Z,99.90
2019-03-10T07:49:09.567Z,99.90
2019-03-10T07:51:40.437Z,99.90
2019-03-10T07:54:03.853Z,99.90
2019-03-10T07:56:27.571Z,99.90
2019-03-10T07:59:02.630Z,99.90
2019-03-10T08:01:26.754Z,99.90
2019-03-10T08:08:27.077Z,99.90
2019-03-10T08:10:50.751Z,99.90
2019-03-10T08:16:04.171Z,99.90
2019-03-10T08:20:57.286Z,99.90
2019-03-10T08:23:32.675Z,99.90
2019-03-10T08:25:56.176Z,99.90
2019-03-10T08:28:44.273Z,99.90
2019-03-10T08:31:07.732Z,99.90
2019-03-10T08:33:27.413Z,99.90
2019-03-10T08:36:13.685Z,99.90
2019-03-10T08:38:56.849Z,99.90
2019-03-10T08:41:16.167Z,99.90
2019-03-10T08:43:39.544Z,99.90
2019-03-10T08:48:23.803Z,99.90
2019-03-10T08:51:12.602Z,99.90
2019-03-10T08:53:54.887Z,99.90
2019-03-10T09:01:21.077Z,99.90
2019-03-10T09:03:50.326Z,99.90
2019-03-10T09:06:34.145Z,99.90
2019-03-10T09:08:57.519Z,99.90
2019-03-10T09:11:32.815Z,99.90
2019-03-10T09:13:56.282Z,99.90
2019-03-10T09:16:22.987Z,99.90
2019-03-10T09:18:41.613Z,99.90
2019-03-10T09:21:05.037Z,99.90
2019-03-10T09:23:26.807Z,99.90
2019-03-10T09:25:39.340Z,99.90
2019-03-10T09:28:03.087Z,99.90
2019-03-10T09:30:27.172Z,99.90
2019-03-10T09:32:50.518Z,99.90
2019-03-10T09:35:18.219Z,99.90
2019-03-10T09:42:30.691Z,99.90
2019-03-10T09:47:45.536Z,99.90
2019-03-10T09:50:11.530Z,99.90
2019-03-10T09:52:37.326Z,99.90
2019-03-10T09:55:01.254Z,99.90
2019-03-10T09:57:25.380Z,99.90
2019-03-10T10:00:12.287Z,99.90
2019-03-10T10:02:10.922Z,99.90
2019-03-10T10:04:38.285Z,99.90
2019-03-10T10:06:52.777Z,99.90
2019-03-10T10:09:16.447Z,99.90
2019-03-10T10:11:39.877Z,99.90
2019-03-10T10:16:22.387Z,99.90
2019-03-10T10:18:45.812Z,99.90
2019-03-10T10:21:16.317Z,99.90
2019-03-10T10:23:39.961Z,99.90
2019-03-10T10:26:23.582Z,99.90
2019-03-10T10:31:07.982Z,99.90
2019-03-10T10:33:50.354Z,99.90
2019-03-10T10:36:16.131Z,99.90
2019-03-10T10:38:44.509Z,99.90
2019-03-10T10:41:10.977Z,99.90
2019-03-10T10:43:34.543Z,99.90
2019-03-10T10:45:57.994Z,99.90
2019-03-10T10:48:24.367Z,99.90
2019-03-10T10:50:50.704Z,99.90
2019-03-10T10:53:10.995Z,99.90
2019-03-10T10:55:35.524Z,99.90
2019-03-10T10:58:01.781Z,99.90
2019-03-10T11:00:29.590Z,99.90
2019-03-10T11:05:21.990Z,99.90
2019-03-10T11:10:06.902Z,99.90
2019-03-10T11:12:17.869Z,99.90
2019-03-10T11:14:44.253Z,99.90
2019-03-10T11:17:16.899Z,99.90
2019-03-10T11:19:37.064Z,99.90
2019-03-10T11:22:11.815Z,99.90
2019-03-10T11:24:35.545Z,99.90
2019-03-10T11:26:57.189Z,99.90
2019-03-10T11:29:26.706Z,99.90
2019-03-10T11:31:49.982Z,99.90
2019-03-10T11:34:13.432Z,99.90
2019-03-10T11:36:37.057Z,99.90
2019-03-10T11:43:54.967Z,99.90
2019-03-10T11:49:26.353Z,99.90
2019-03-10T11:54:05.750Z,99.90
2019-03-10T11:56:48.386Z,99.90
2019-03-10T11:59:00.777Z,99.90
2019-03-10T12:01:43.320Z,99.90
2019-03-10T12:04:06.721Z,99.90
2019-03-10T12:06:19.893Z,99.90
2019-03-10T12:10:48.303Z,99.90
2019-03-10T12:12:54.218Z,99.90
2019-03-10T12:15:00.838Z,99.90
2019-03-10T12:17:05.643Z,99.90
2019-03-10T12:19:12.638Z,99.90
2019-03-10T12:21:19.681Z,99.90
2019-03-10T12:25:36.806Z,99.90
2019-03-10T12:27:42.974Z,99.90
2019-03-10T12:29:49.480Z,99.90
2019-03-10T12:31:54.210Z,99.90
2019-03-10T12:34:05.272Z,99.90
2019-03-10T12:36:09.428Z,99.90
2019-03-10T12:38:14.219Z,99.90
2019-03-10T12:40:18.630Z,99.90
2019-03-10T12:42:24.229Z,99.90
2019-03-10T12:44:48.746Z,99.90
2019-03-10T12:47:04.848Z,99.90
2019-03-10T12:51:53.806Z,99.90
2019-03-10T12:59:15.426Z,99.90
2019-03-10T13:01:20.136Z,99.90
2019-03-10T13:03:24.916Z,99.90
2019-03-10T13:05:33.199Z,99.90
2019-03-10T13:07:37.911Z,99.90
2019-03-10T13:09:42.676Z,99.90
2019-03-10T13:11:47.358Z,99.90
2019-03-10T13:13:54.593Z,99.90
2019-03-10T13:16:19.161Z,99.90
2019-03-10T13:18:25.763Z,99.90
2019-03-10T13:20:49.385Z,99.90
2019-03-10T13:25:23.487Z,99.90
2019-03-10T13:27:45.319Z,99.90
2019-03-10T13:29:49.907Z,99.90
2019-03-10T13:31:54.635Z,99.90
2019-03-10T13:34:18.159Z,99.90
2019-03-10T13:36:22.698Z,99.90
2019-03-10T13:38:28.523Z,99.90
2019-03-10T13:45:26.169Z,99.90
2019-03-10T13:47:46.084Z,99.90
2019-03-10T13:49:55.040Z,99.70
2019-03-10T13:52:02.676Z,99.80
2019-03-10T13:56:44.536Z,99.20
2019-03-10T13:58:49.671Z,99.90
2019-03-10T14:01:13.359Z,99.90
2019-03-10T14:03:32.293Z,99.90
2019-03-10T14:05:39.740Z,99.90
2019-03-10T14:08:03.249Z,99.30
2019-03-10T14:10:28.778Z,99.10
2019-03-10T14:12:33.898Z,99.00
2019-03-10T14:14:38.588Z,99.20
2019-03-10T14:19:37.845Z,99.70
2019-03-10T14:21:53.934Z,99.10
2019-03-10T14:23:58.455Z,99.00
2019-03-10T14:26:09.422Z,98.30
2019-03-10T14:28:18.573Z,98.10
2019-03-10T14:30:24.520Z,97.70
2019-03-10T14:32:32.101Z,98.10
2019-03-10T14:34:39.376Z,98.50
2019-03-10T14:36:44.342Z,98.90
2019-03-10T14:38:49.033Z,99.30
2019-03-10T14:40:53.733Z,99.10
2019-03-10T14:42:58.249Z,99.50
2019-03-10T14:45:02.916Z,99.60
2019-03-10T14:50:04.479Z,99.70
2019-03-10T14:52:28.687Z,99.90
2019-03-10T14:54:47.415Z,99.80
2019-03-10T14:56:57.795Z,99.90
2019-03-10T14:59:02.410Z,99.90
2019-03-10T15:03:59.636Z,99.90
2019-03-10T15:06:06.553Z,99.90
2019-03-10T15:08:32.937Z,99.90
2019-03-10T15:13:11.238Z,99.90
2019-03-10T15:15:28.948Z,99.90
2019-03-10T15:17:35.057Z,99.90
2019-03-10T15:20:01.585Z,99.90
2019-03-10T15:21:56.177Z,99.90
2019-03-10T15:24:12.221Z,99.90
2019-03-10T15:26:16.749Z,99.90
2019-03-10T15:28:22.066Z,99.90
2019-03-10T15:30:26.683Z,99.90
2019-03-10T15:33:25.184Z,99.90
2019-03-10T15:35:20.570Z,99.90
2019-03-10T15:37:25.449Z,99.90
2019-03-10T15:39:33.364Z,99.90
2019-03-10T15:41:39.686Z,99.90
2019-03-10T15:43:44.994Z,99.90
2019-03-10T15:45:50.325Z,99.90
2019-03-10T15:47:54.932Z,99.90
2019-03-10T15:50:00.400Z,99.90
2019-03-10T15:52:07.396Z,99.90
2019-03-10T15:56:21.997Z,99.90
2019-03-10T15:58:27.135Z,99.90
2019-03-10T16:00:52.935Z,99.90
2019-03-10T16:03:01.951Z,99.90
2019-03-10T16:05:58.581Z,99.90
2019-03-10T16:08:11.452Z,99.90
2019-03-10T16:10:51.901Z,99.90
2019-03-10T16:12:59.776Z,99.90
2019-03-10T16:15:04.485Z,99.90
2019-03-10T16:17:23.099Z,99.90
2019-03-10T16:19:31.543Z,99.90
2019-03-10T16:21:38.862Z,99.90
2019-03-10T16:23:43.321Z,99.90
2019-03-10T16:25:56.129Z,99.90
2019-03-10T16:27:56.853Z,99.90
2019-03-10T16:30:02.412Z,99.90
2019-03-10T16:32:11.110Z,99.90
2019-03-10T16:34:15.877Z,99.90
2019-03-10T16:38:50.542Z,99.90
2019-03-10T16:43:23.256Z,99.90
2019-03-10T16:45:47.258Z,99.90
2019-03-10T16:47:57.303Z,99.90
2019-03-10T16:50:01.096Z,99.90
2019-03-10T16:52:24.677Z,99.90
2019-03-10T16:55:10.858Z,99.90
2019-03-10T16:57:19.387Z,99.90
2019-03-10T16:59:23.975Z,99.90
2019-03-10T17:01:28.571Z,99.90
2019-03-10T17:03:33.106Z,99.90
2019-03-10T17:05:38.940Z,99.90
2019-03-10T17:07:59.975Z,99.90
2019-03-10T17:10:12.935Z,99.90
2019-03-10T17:12:19.869Z,99.90
2019-03-10T17:14:25.316Z,99.90
2019-03-10T17:16:51.169Z,99.90
2019-03-10T17:18:58.327Z,99.90
2019-03-10T17:24:00.761Z,99.90
2019-03-10T17:26:07.537Z,99.90
2019-03-10T17:28:20.101Z,99.90
2019-03-10T17:32:39.125Z,99.90
2019-03-10T17:34:45.976Z,99.90
2019-03-10T17:36:51.372Z,99.90
2019-03-10T17:38:56.602Z,99.90
2019-03-10T17:41:01.946Z,99.90
2019-03-10T17:43:08.108Z,99.90
2019-03-10T17:45:14.745Z,99.90
2019-03-10T17:47:20.159Z,99.90
2019-03-10T17:49:26.449Z,99.90
2019-03-10T17:51:32.073Z,99.90
2019-03-10T17:53:36.525Z,99.90
2019-03-10T17:55:42.188Z,99.90
2019-03-10T17:57:47.526Z,99.90
2019-03-10T17:59:52.203Z,99.90
2019-03-10T18:02:08.288Z,99.90
2019-03-10T18:04:04.254Z,99.90
2019-03-10T18:06:13.158Z,99.90
2019-03-10T18:08:18.263Z,99.90
2019-03-10T18:10:22.866Z,99.90
2019-03-10T18:12:32.299Z,99.90
2019-03-10T18:17:22.363Z,99.90
2019-03-10T18:19:28.190Z,99.90
2019-03-10T18:21:35.613Z,99.90
2019-03-10T18:23:46.659Z,99.90
2019-03-10T18:25:57.715Z,99.90
2019-03-10T18:31:10.239Z,99.90
2019-03-10T18:33:18.808Z,99.90
2019-03-10T18:38:17.724Z,99.90
2019-03-10T18:40:26.872Z,99.90
2019-03-10T18:42:34.850Z,99.90
2019-03-10T18:44:40.177Z,99.90
2019-03-10T18:46:46.099Z,99.90
2019-03-10T18:48:53.941Z,99.90
2019-03-10T18:50:58.843Z,99.90
2019-03-10T18:53:03.914Z,99.90
2019-03-10T18:55:12.210Z,99.90
2019-03-10T19:00:08.067Z,99.90
2019-03-10T19:04:42.402Z,99.90
2019-03-10T19:07:06.941Z,99.90
2019-03-10T19:09:16.246Z,99.90
2019-03-10T19:11:39.009Z,99.90
2019-03-10T19:13:48.098Z,99.90
2019-03-10T19:15:53.452Z,99.90
2019-03-10T19:18:06.118Z,99.90
2019-03-10T19:20:45.225Z,99.90
2019-03-10T19:22:37.361Z,99.90
2019-03-10T19:25:03.902Z,99.90
2019-03-10T19:27:30.382Z,99.90
2019-03-10T19:29:37.123Z,99.90
2019-03-10T19:31:43.865Z,99.90
2019-03-10T19:34:00.159Z,99.90
2019-03-10T19:36:23.804Z,99.90
2019-03-10T19:38:32.923Z,99.90
2019-03-10T19:40:45.102Z,99.90
2019-03-10T19:43:00.864Z,99.90
2019-03-10T19:45:06.296Z,99.90
2019-03-10T19:47:10.888Z,99.90
2019-03-10T19:49:15.834Z,99.90
2019-03-10T19:51:42.637Z,99.90
2019-03-10T19:53:47.704Z,99.90
2019-03-10T19:55:52.247Z,99.90
2019-03-10T19:57:59.486Z,99.90
2019-03-10T20:00:23.614Z,99.90
2019-03-10T20:02:39.423Z,99.90
2019-03-10T20:04:57.718Z,99.90
2019-03-10T20:07:21.449Z,99.90
2019-03-10T20:09:45.237Z,99.90
2019-03-10T20:11:50.594Z,99.90
2019-03-10T20:13:55.380Z,99.90
2019-03-10T20:16:19.044Z,99.90
2019-03-10T20:18:39.933Z,99.90
2019-03-10T20:20:56.187Z,99.90
2019-03-10T20:23:01.389Z,99.90
2019-03-10T20:25:08.406Z,99.90
2019-03-10T20:27:15.049Z,99.90
2019-03-10T20:29:21.379Z,99.90
2019-03-10T20:31:28.400Z,99.90
2019-03-10T20:33:36.333Z,99.90
2019-03-10T20:36:02.382Z,99.90
2019-03-10T20:38:08.922Z,99.90
2019-03-10T20:40:15.007Z,99.90
2019-03-10T20:42:19.632Z,99.90
2019-03-10T20:44:25.523Z,99.90
2019-03-10T20:46:30.382Z,99.90
2019-03-10T20:48:55.323Z,99.90
2019-03-10T20:51:00.749Z,99.90
2019-03-10T20:53:05.682Z,99.90
2019-03-10T20:55:13.473Z,99.90
2019-03-10T20:57:20.513Z,99.90
2019-03-10T20:59:25.698Z,99.90
2019-03-10T21:01:33.336Z,99.90
2019-03-10T21:03:37.922Z,99.90
2019-03-10T21:05:45.464Z,99.90
2019-03-10T21:07:52.308Z,99.90
2019-03-10T21:09:59.226Z,99.90
2019-03-10T21:12:03.897Z,99.90
2019-03-10T21:14:10.077Z,99.90
2019-03-10T21:16:16.863Z,99.90
2019-03-10T21:18:26.154Z,99.90
2019-03-10T21:20:31.680Z,99.90
2019-03-10T21:22:36.385Z,99.90
2019-03-10T21:24:43.762Z,99.90
2019-03-10T21:26:55.007Z,99.90
2019-03-10T21:29:37.502Z,99.90
2019-03-10T21:31:42.644Z,99.90
2019-03-10T21:33:50.678Z,99.90
2019-03-10T21:36:14.307Z,99.90
2019-03-10T21:38:21.643Z,99.90
2019-03-10T21:40:26.211Z,99.90
2019-03-10T21:42:31.597Z,99.90
2019-03-10T21:44:38.289Z,99.90
2019-03-10T21:46:43.174Z,99.90
2019-03-10T21:49:06.729Z,99.90
2019-03-10T21:51:30.807Z,99.90
2019-03-10T21:53:36.460Z,99.90
2019-03-10T22:00:50.450Z,99.90
2019-03-10T22:02:56.150Z,99.90
2019-03-10T22:05:02.825Z,99.90
2019-03-10T22:07:10.230Z,99.90
2019-03-10T22:12:06.639Z,99.90
2019-03-10T22:17:23.484Z,99.90
2019-03-10T22:19:32.462Z,99.90
2019-03-10T22:22:09.988Z,99.90
2019-03-10T22:24:05.267Z,99.90
2019-03-10T22:31:02.047Z,99.90
2019-03-10T22:33:09.499Z,99.90
2019-03-10T22:35:20.317Z,99.90
2019-03-10T22:37:33.568Z,99.90
2019-03-10T22:39:38.438Z,99.90
2019-03-10T22:41:44.982Z,99.90
2019-03-10T22:43:49.878Z,99.90
2019-03-10T22:45:55.515Z,99.90
2019-03-10T22:48:00.420Z,99.90
2019-03-10T22:50:05.447Z,99.90
2019-03-10T22:52:10.280Z,99.90
2019-03-10T22:54:15.964Z,99.90
2019-03-10T22:58:53.924Z,99.90
2019-03-10T23:01:17.686Z,99.90
2019-03-10T23:03:22.300Z,99.90
2019-03-10T23:07:52.577Z,99.90
2019-03-10T23:09:59.083Z,99.90
2019-03-10T23:12:03.526Z,99.90
2019-03-10T23:14:07.924Z,99.90
2019-03-10T23:16:31.425Z,99.90
2019-03-10T23:18:35.853Z,99.90
2019-03-10T23:21:00.290Z,99.90
2019-03-10T23:23:16.844Z,99.90
2019-03-10T23:25:37.088Z,99.90
2019-03-10T23:27:41.639Z,99.90
2019-03-10T23:29:48.544Z,99.90
2019-03-10T23:31:55.466Z,99.90
2019-03-10T23:34:00.003Z,99.90
2019-03-10T23:36:07.591Z,99.90
2019-03-10T23:38:12.093Z,99.90
2019-03-10T23:40:36.375Z,99.90
2019-03-10T23:42:40.892Z,99.90
2019-03-10T23:44:45.323Z,99.90
2019-03-10T23:47:08.777Z,99.90
2019-03-10T23:49:13.424Z,99.90
2019-03-10T23:51:17.938Z,99.90
2019-03-10T23:53:22.423Z,99.90
2019-03-10T23:55:26.778Z,99.90
2019-03-10T23:57:31.206Z,99.90
2019-03-10T23:59:35.697Z,99.90
